sensor_id;sensor_type;location;lat;lon;timestamp;temperature;humidity
30250;DHT22;17064;47.974;13.826;2022-09-14T03:00:42;14.40;99.90
30250;DHT22;17064;47.974;13.826;2022-09-14T03:05:43;14.40;99.90
30250;DHT22;17064;47.974;13.826;2022-09-14T03:10:44;14.30;99.90
30250;DHT22;17064;47.974;13.826;2022-09-14T03:15:45;14.40;99.90
30250;DHT22;17064;47.974;13.826;2022-09-14T03:20:46;14.40;99.90
30250;DHT22;17064;47.974;13.826;2022-09-14T03:25:46;14.40;99.90
30250;DHT22;17064;47.974;13.826;2022-09-14T03:30:47;14.30;99.90
30250;DHT22;17064;47.974;13.826;2022-09-14T03:35:48;14.30;99.90
30250;DHT22;17064;47.974;13.826;2022-09-14T03:40:49;14.30;99.90
30250;DHT22;17064;47.974;13.826;2022-09-14T03:45:49;14.30;99.90
30250;DHT22;17064;47.974;13.826;2022-09-14T03:50:50;14.30;99.90
30250;DHT22;17064;47.974;13.826;2022-09-14T03:55:51;14.30;99.90
30250;DHT22;17064;47.974;13.826;2022-09-14T04:00:51;14.30;99.90
30250;DHT22;17064;47.974;13.826;2022-09-14T04:05:55;14.30;99.90
30250;DHT22;17064;47.974;13.826;2022-09-14T04:10:56;14.30;99.90
30250;DHT22;17064;47.974;13.826;2022-09-14T04:15:58;14.30;99.90
30250;DHT22;17064;47.974;13.826;2022-09-14T04:21:01;14.30;99.90
30250;DHT22;17064;47.974;13.826;2022-09-14T04:26:09;14.40;99.90
30250;DHT22;17064;47.974;13.826;2022-09-14T04:31:11;14.30;99.90
30250;DHT22;17064;47.974;13.826;2022-09-14T04:36:14;14.30;99.90
30250;DHT22;17064;47.974;13.826;2022-09-14T04:41:17;14.30;99.90
30250;DHT22;17064;47.974;13.826;2022-09-14T04:46:31;14.30;99.90
30250;DHT22;17064;47.974;13.826;2022-09-14T04:51:34;14.20;99.90
30250;DHT22;17064;47.974;13.826;2022-09-14T04:56:35;14.20;99.90
30250;DHT22;17064;47.974;13.826;2022-09-14T05:01:42;14.20;99.90
30250;DHT22;17064;47.974;13.826;2022-09-14T05:13:05;14.30;99.90
30250;DHT22;17064;47.974;13.826;2022-09-14T05:18:06;14.30;99.90
30250;DHT22;17064;47.974;13.826;2022-09-14T05:23:07;14.30;99.90
30250;DHT22;17064;47.974;13.826;2022-09-14T05:28:08;14.30;99.90
30250;DHT22;17064;47.974;13.826;2022-09-14T05:33:08;14.30;99.90
30250;DHT22;17064;47.974;13.826;2022-09-14T05:38:09;14.40;99.90
30250;DHT22;17064;47.974;13.826;2022-09-14T05:43:10;14.50;99.90
30250;DHT22;17064;47.974;13.826;2022-09-14T05:48:10;14.60;99.90
30250;DHT22;17064;47.974;13.826;2022-09-14T05:53:11;14.60;99.90
30250;DHT22;17064;47.974;13.826;2022-09-14T05:58:12;14.60;99.90
30250;DHT22;17064;47.974;13.826;2022-09-14T06:03:12;14.70;99.90
30250;DHT22;17064;47.974;13.826;2022-09-14T06:08:13;14.90;99.90
30250;DHT22;17064;47.974;13.826;2022-09-14T06:13:14;15.00;99.90
30250;DHT22;17064;47.974;13.826;2022-09-14T06:18:14;15.30;99.90
30250;DHT22;17064;47.974;13.826;2022-09-14T06:23:15;15.40;99.90
30250;DHT22;17064;47.974;13.826;2022-09-14T06:28:16;15.60;99.90
30250;DHT22;17064;47.974;13.826;2022-09-14T06:33:17;15.70;99.90
30250;DHT22;17064;47.974;13.826;2022-09-14T06:38:18;15.90;99.90
30250;DHT22;17064;47.974;13.826;2022-09-14T06:43:19;16.00;99.90
30250;DHT22;17064;47.974;13.826;2022-09-14T06:48:20;16.10;99.90
30250;DHT22;17064;47.974;13.826;2022-09-14T06:53:20;16.20;99.90
30250;DHT22;17064;47.974;13.826;2022-09-14T06:58:21;16.30;99.90
30250;DHT22;17064;47.974;13.826;2022-09-14T07:03:22;16.30;99.90
30250;DHT22;17064;47.974;13.826;2022-09-14T07:08:23;16.30;99.90
30250;DHT22;17064;47.974;13.826;2022-09-14T07:13:28;16.20;99.90
30250;DHT22;17064;47.974;13.826;2022-09-14T07:18:29;16.10;99.90
30250;DHT22;17064;47.974;13.826;2022-09-14T07:23:36;16.10;99.90
30250;DHT22;17064;47.974;13.826;2022-09-14T07:28:38;16.10;99.90
30250;DHT22;17064;47.974;13.826;2022-09-14T07:33:39;16.10;99.90
30250;DHT22;17064;47.974;13.826;2022-09-14T07:38:40;16.10;99.90
30250;DHT22;17064;47.974;13.826;2022-09-14T07:43:40;16.20;99.90
30250;DHT22;17064;47.974;13.826;2022-09-14T07:48:42;16.20;99.90
30250;DHT22;17064;47.974;13.826;2022-09-14T07:53:43;16.20;99.90
30250;DHT22;17064;47.974;13.826;2022-09-14T07:58:44;16.10;99.90
30250;DHT22;17064;47.974;13.826;2022-09-14T08:03:45;16.20;99.90
30250;DHT22;17064;47.974;13.826;2022-09-14T08:08:49;16.10;99.90
30250;DHT22;17064;47.974;13.826;2022-09-14T08:13:55;16.10;99.90
30250;DHT22;17064;47.974;13.826;2022-09-14T08:18:59;16.00;99.90
30250;DHT22;17064;47.974;13.826;2022-09-14T08:23:59;16.20;99.90
30250;DHT22;17064;47.974;13.826;2022-09-14T08:29:03;16.50;99.90
30250;DHT22;17064;47.974;13.826;2022-09-14T08:34:05;16.70;99.90
30250;DHT22;17064;47.974;13.826;2022-09-14T08:39:08;16.90;99.90
30250;DHT22;17064;47.974;13.826;2022-09-14T08:44:26;17.10;99.90
30250;DHT22;17064;47.974;13.826;2022-09-14T08:49:46;17.50;99.90
30250;DHT22;17064;47.974;13.826;2022-09-14T08:54:50;17.80;99.90
30250;DHT22;17064;47.974;13.826;2022-09-14T09:00:08;18.00;99.90
30250;DHT22;17064;47.974;13.826;2022-09-14T09:10:37;18.40;99.90
30250;DHT22;17064;47.974;13.826;2022-09-14T09:15:51;18.60;99.90
30250;DHT22;17064;47.974;13.826;2022-09-14T09:21:00;18.60;99.90
30250;DHT22;17064;47.974;13.826;2022-09-14T09:26:16;18.70;99.90
30250;DHT22;17064;47.974;13.826;2022-09-14T09:31:28;18.80;99.90
30250;DHT22;17064;47.974;13.826;2022-09-14T09:36:35;18.80;99.90
30250;DHT22;17064;47.974;13.826;2022-09-14T09:41:57;18.90;99.90
30250;DHT22;17064;47.974;13.826;2022-09-14T09:47:00;19.10;99.90
30250;DHT22;17064;47.974;13.826;2022-09-14T09:52:15;19.10;99.90
30250;DHT22;17064;47.974;13.826;2022-09-14T09:57:28;19.40;99.90
30250;DHT22;17064;47.974;13.826;2022-09-14T10:02:30;19.90;99.90
30250;DHT22;17064;47.974;13.826;2022-09-14T10:07:38;20.50;99.90
30250;DHT22;17064;47.974;13.826;2022-09-14T10:12:47;21.10;99.90
30250;DHT22;17064;47.974;13.826;2022-09-14T10:22:54;22.00;99.90
30250;DHT22;17064;47.974;13.826;2022-09-14T10:33:00;23.00;99.90
30250;DHT22;17064;47.974;13.826;2022-09-14T10:38:11;23.20;99.90
30250;DHT22;17064;47.974;13.826;2022-09-14T10:43:25;23.40;99.90
30250;DHT22;17064;47.974;13.826;2022-09-14T11:25:20;25.70;99.90
30250;DHT22;17064;47.974;13.826;2022-09-14T11:30:33;25.90;99.90
30250;DHT22;17064;47.974;13.826;2022-09-14T11:35:47;26.20;99.90
30250;DHT22;17064;47.974;13.826;2022-09-14T11:41:13;26.20;99.90
30250;DHT22;17064;47.974;13.826;2022-09-14T11:46:19;26.20;99.50
30250;DHT22;17064;47.974;13.826;2022-09-14T11:51:25;26.40;99.90
30250;DHT22;17064;47.974;13.826;2022-09-14T11:56:29;26.60;99.90
30250;DHT22;17064;47.974;13.826;2022-09-14T12:01:36;26.80;97.80
30250;DHT22;17064;47.974;13.826;2022-09-14T12:11:38;27.10;96.10
30250;DHT22;17064;47.974;13.826;2022-09-14T12:22:35;27.00;91.90
30250;DHT22;17064;47.974;13.826;2022-09-14T12:27:38;26.80;95.30
30250;DHT22;17064;47.974;13.826;2022-09-14T12:32:41;26.90;90.00
30250;DHT22;17064;47.974;13.826;2022-09-14T12:37:42;26.90;93.30
30250;DHT22;17064;47.974;13.826;2022-09-14T12:42:43;27.00;94.00
30250;DHT22;17064;47.974;13.826;2022-09-14T12:47:50;27.10;93.60
30250;DHT22;17064;47.974;13.826;2022-09-14T12:53:22;27.20;93.70
30250;DHT22;17064;47.974;13.826;2022-09-14T13:03:50;27.20;93.80
30250;DHT22;17064;47.974;13.826;2022-09-14T13:08:56;27.20;93.00
30250;DHT22;17064;47.974;13.826;2022-09-14T13:13:58;27.40;92.40
30250;DHT22;17064;47.974;13.826;2022-09-14T13:19:00;27.60;92.60
30250;DHT22;17064;47.974;13.826;2022-09-14T13:24:02;27.90;91.80
30250;DHT22;17064;47.974;13.826;2022-09-14T13:29:06;28.10;87.00
30250;DHT22;17064;47.974;13.826;2022-09-14T13:34:21;28.50;85.80
30250;DHT22;17064;47.974;13.826;2022-09-14T13:39:24;28.80;81.90
30250;DHT22;17064;47.974;13.826;2022-09-14T13:44:32;28.90;81.70
30250;DHT22;17064;47.974;13.826;2022-09-14T13:49:33;28.70;80.40
30250;DHT22;17064;47.974;13.826;2022-09-14T13:54:35;28.10;81.20
30250;DHT22;17064;47.974;13.826;2022-09-14T13:59:36;27.40;85.30
30250;DHT22;17064;47.974;13.826;2022-09-14T14:04:37;26.80;91.00
30250;DHT22;17064;47.974;13.826;2022-09-14T14:09:52;26.40;94.30
30250;DHT22;17064;47.974;13.826;2022-09-14T14:20:28;25.80;99.50
30250;DHT22;17064;47.974;13.826;2022-09-14T14:25:52;25.50;99.90
30250;DHT22;17064;47.974;13.826;2022-09-14T14:30:56;25.40;99.90
30250;DHT22;17064;47.974;13.826;2022-09-14T14:35:57;25.30;99.90
30250;DHT22;17064;47.974;13.826;2022-09-14T14:40:58;25.20;99.90
30250;DHT22;17064;47.974;13.826;2022-09-14T14:46:00;25.00;99.90
30250;DHT22;17064;47.974;13.826;2022-09-14T14:51:01;24.90;99.90
30250;DHT22;17064;47.974;13.826;2022-09-14T14:56:02;24.80;99.90
30250;DHT22;17064;47.974;13.826;2022-09-14T15:01:02;24.60;99.90
30250;DHT22;17064;47.974;13.826;2022-09-14T15:06:20;24.40;99.90
30250;DHT22;17064;47.974;13.826;2022-09-14T15:11:22;24.30;99.90
30250;DHT22;17064;47.974;13.826;2022-09-14T15:16:23;24.20;99.90
30250;DHT22;17064;47.974;13.826;2022-09-14T15:21:24;24.10;99.90
30250;DHT22;17064;47.974;13.826;2022-09-14T15:26:25;24.00;99.90
30250;DHT22;17064;47.974;13.826;2022-09-14T15:31:26;23.90;99.90
30250;DHT22;17064;47.974;13.826;2022-09-14T15:36:35;23.80;99.90
30250;DHT22;17064;47.974;13.826;2022-09-14T15:41:36;23.70;99.90
30250;DHT22;17064;47.974;13.826;2022-09-14T15:46:37;23.60;99.90
30250;DHT22;17064;47.974;13.826;2022-09-14T15:51:44;23.50;99.90
30250;DHT22;17064;47.974;13.826;2022-09-14T15:56:48;23.40;99.90
30250;DHT22;17064;47.974;13.826;2022-09-14T16:01:50;23.30;99.90
30250;DHT22;17064;47.974;13.826;2022-09-14T16:06:50;23.20;99.90
30250;DHT22;17064;47.974;13.826;2022-09-14T16:11:51;23.00;99.90
30250;DHT22;17064;47.974;13.826;2022-09-14T16:16:52;22.90;99.90
30250;DHT22;17064;47.974;13.826;2022-09-14T16:21:52;22.80;99.90
30250;DHT22;17064;47.974;13.826;2022-09-14T16:26:54;22.70;99.90
30250;DHT22;17064;47.974;13.826;2022-09-14T16:31:57;22.60;99.90
30250;DHT22;17064;47.974;13.826;2022-09-14T16:36:57;22.50;99.90
30250;DHT22;17064;47.974;13.826;2022-09-14T16:41:58;22.40;99.90
30250;DHT22;17064;47.974;13.826;2022-09-14T16:46:59;22.40;99.90
30250;DHT22;17064;47.974;13.826;2022-09-14T16:52:00;22.30;99.90
30250;DHT22;17064;47.974;13.826;2022-09-14T16:57:01;22.10;99.90
30250;DHT22;17064;47.974;13.826;2022-09-14T17:02:01;21.90;99.90
30250;DHT22;17064;47.974;13.826;2022-09-14T17:07:02;21.80;99.90
30250;DHT22;17064;47.974;13.826;2022-09-14T17:12:03;21.70;99.90
30250;DHT22;17064;47.974;13.826;2022-09-14T17:17:04;21.40;99.90
30250;DHT22;17064;47.974;13.826;2022-09-14T17:22:04;21.20;99.90
30250;DHT22;17064;47.974;13.826;2022-09-14T17:27:05;21.00;99.90
30250;DHT22;17064;47.974;13.826;2022-09-14T17:32:06;20.60;99.90
30250;DHT22;17064;47.974;13.826;2022-09-14T17:37:07;20.20;99.90
30250;DHT22;17064;47.974;13.826;2022-09-14T17:42:07;19.90;99.90
30250;DHT22;17064;47.974;13.826;2022-09-14T17:47:08;19.60;99.90
30250;DHT22;17064;47.974;13.826;2022-09-14T17:52:09;19.40;99.90
30250;DHT22;17064;47.974;13.826;2022-09-14T17:57:10;19.30;99.90
30250;DHT22;17064;47.974;13.826;2022-09-14T18:02:10;19.20;99.90
30250;DHT22;17064;47.974;13.826;2022-09-14T18:07:11;19.10;99.90
30250;DHT22;17064;47.974;13.826;2022-09-14T18:12:12;18.90;99.90
30250;DHT22;17064;47.974;13.826;2022-09-14T18:17:15;18.80;99.90
30250;DHT22;17064;47.974;13.826;2022-09-14T18:22:16;18.60;99.90
30250;DHT22;17064;47.974;13.826;2022-09-14T18:27:17;18.50;99.90
30250;DHT22;17064;47.974;13.826;2022-09-14T18:32:18;18.40;99.90
30250;DHT22;17064;47.974;13.826;2022-09-14T18:37:19;18.40;99.90
30250;DHT22;17064;47.974;13.826;2022-09-14T18:42:22;18.40;99.90
30250;DHT22;17064;47.974;13.826;2022-09-14T18:47:23;18.30;99.90
30250;DHT22;17064;47.974;13.826;2022-09-14T18:52:24;18.20;99.90
30250;DHT22;17064;47.974;13.826;2022-09-14T18:57:24;18.30;99.90
30250;DHT22;17064;47.974;13.826;2022-09-14T19:02:26;18.20;99.90
30250;DHT22;17064;47.974;13.826;2022-09-14T19:07:27;18.10;99.90
30250;DHT22;17064;47.974;13.826;2022-09-14T19:12:38;18.10;99.90
30250;DHT22;17064;47.974;13.826;2022-09-14T19:17:38;18.00;99.90
30250;DHT22;17064;47.974;13.826;2022-09-14T19:22:39;18.00;99.90
30250;DHT22;17064;47.974;13.826;2022-09-14T19:27:40;18.00;99.90
30250;DHT22;17064;47.974;13.826;2022-09-14T19:32:41;17.90;99.90
30250;DHT22;17064;47.974;13.826;2022-09-14T19:37:41;17.90;99.90
30250;DHT22;17064;47.974;13.826;2022-09-14T19:42:42;17.80;99.90
30250;DHT22;17064;47.974;13.826;2022-09-14T19:47:43;17.70;99.90
30250;DHT22;17064;47.974;13.826;2022-09-14T19:52:44;17.60;99.90
30250;DHT22;17064;47.974;13.826;2022-09-14T19:57:45;17.50;99.90
30250;DHT22;17064;47.974;13.826;2022-09-14T20:02:47;17.50;99.90
30250;DHT22;17064;47.974;13.826;2022-09-14T20:07:48;17.40;99.90
30250;DHT22;17064;47.974;13.826;2022-09-14T20:12:49;17.50;99.90
30250;DHT22;17064;47.974;13.826;2022-09-14T20:17:52;17.50;99.90
30250;DHT22;17064;47.974;13.826;2022-09-14T20:22:53;17.40;99.90
30250;DHT22;17064;47.974;13.826;2022-09-14T20:27:54;17.30;99.90
30250;DHT22;17064;47.974;13.826;2022-09-14T20:32:55;17.30;99.90
30250;DHT22;17064;47.974;13.826;2022-09-14T20:37:56;17.20;99.90
30250;DHT22;17064;47.974;13.826;2022-09-14T20:42:57;17.20;99.90
30250;DHT22;17064;47.974;13.826;2022-09-14T20:47:57;17.10;99.90
30250;DHT22;17064;47.974;13.826;2022-09-14T20:52:58;17.10;99.90
30250;DHT22;17064;47.974;13.826;2022-09-14T20:57:59;17.10;99.90
30250;DHT22;17064;47.974;13.826;2022-09-14T21:03:00;17.10;99.90
30250;DHT22;17064;47.974;13.826;2022-09-14T21:08:01;17.00;99.90
30250;DHT22;17064;47.974;13.826;2022-09-14T21:13:02;17.00;99.90
30250;DHT22;17064;47.974;13.826;2022-09-14T21:18:03;17.00;99.90
30250;DHT22;17064;47.974;13.826;2022-09-14T21:23:04;17.00;99.90
30250;DHT22;17064;47.974;13.826;2022-09-14T21:28:06;17.00;99.90
30250;DHT22;17064;47.974;13.826;2022-09-14T21:33:06;17.00;99.90
30250;DHT22;17064;47.974;13.826;2022-09-14T21:38:07;17.00;99.90
30250;DHT22;17064;47.974;13.826;2022-09-14T21:43:08;17.00;99.90
30250;DHT22;17064;47.974;13.826;2022-09-14T21:48:09;17.00;99.90
30250;DHT22;17064;47.974;13.826;2022-09-14T21:53:09;17.00;99.90
30250;DHT22;17064;47.974;13.826;2022-09-14T21:58:10;17.00;99.90
30250;DHT22;17064;47.974;13.826;2022-09-14T22:03:11;17.00;99.90
30250;DHT22;17064;47.974;13.826;2022-09-14T22:08:11;17.00;99.90
30250;DHT22;17064;47.974;13.826;2022-09-14T22:13:12;16.90;99.90
30250;DHT22;17064;47.974;13.826;2022-09-14T22:18:13;16.90;99.90
30250;DHT22;17064;47.974;13.826;2022-09-14T22:23:14;16.90;99.90
30250;DHT22;17064;47.974;13.826;2022-09-14T22:28:16;16.90;99.90
30250;DHT22;17064;47.974;13.826;2022-09-14T22:33:18;16.90;99.90
30250;DHT22;17064;47.974;13.826;2022-09-14T22:38:24;16.90;99.90
30250;DHT22;17064;47.974;13.826;2022-09-14T22:43:26;16.90;99.90
30250;DHT22;17064;47.974;13.826;2022-09-14T22:48:27;16.80;99.90
30250;DHT22;17064;47.974;13.826;2022-09-14T22:53:29;16.80;99.90
30250;DHT22;17064;47.974;13.826;2022-09-14T22:58:30;16.80;99.90
